createdAt,value
2022-07-29T00:00:37.055Z,29.20
2022-07-29T00:01:38.907Z,29.21
2022-07-29T00:02:40.716Z,29.00
2022-07-29T00:03:42.502Z,28.95
2022-07-29T00:04:44.513Z,28.81
2022-07-29T00:05:46.309Z,29.37
2022-07-29T00:06:48.196Z,28.98
2022-07-29T00:07:49.909Z,28.82
2022-07-29T00:08:51.636Z,29.13
2022-07-29T00:09:53.526Z,28.84
2022-07-29T00:10:55.368Z,29.34
2022-07-29T00:12:00.095Z,28.65
2022-07-29T00:13:02.855Z,29.47
2022-07-29T00:14:04.687Z,29.17
2022-07-29T00:15:07.009Z,29.31
2022-07-29T00:16:08.877Z,29.32
2022-07-29T00:17:10.699Z,28.96
2022-07-29T00:18:12.457Z,29.23
2022-07-29T00:19:14.277Z,29.02
2022-07-29T00:20:16.315Z,28.97
2022-07-29T00:21:18.135Z,29.02
2022-07-29T00:22:20.548Z,28.89
2022-07-29T00:23:22.328Z,29.02
2022-07-29T00:24:24.059Z,29.20
2022-07-29T00:25:25.925Z,29.55
2022-07-29T00:26:32.824Z,29.04
2022-07-29T00:27:35.509Z,29.33
2022-07-29T00:28:37.642Z,29.14
2022-07-29T00:29:39.455Z,29.09
2022-07-29T00:30:43.981Z,29.03
2022-07-29T00:31:45.943Z,28.99
2022-07-29T00:32:47.710Z,29.12
2022-07-29T00:33:49.455Z,29.62
2022-07-29T00:35:09.751Z,28.87
2022-07-29T00:36:11.484Z,29.00
2022-07-29T00:37:13.216Z,28.97
2022-07-29T00:38:17.315Z,29.10
2022-07-29T00:39:19.140Z,29.34
2022-07-29T00:40:23.511Z,29.27
2022-07-29T00:41:25.521Z,29.37
2022-07-29T00:42:27.371Z,29.43
2022-07-29T00:43:29.179Z,29.07
2022-07-29T00:44:30.932Z,29.06
2022-07-29T00:45:32.926Z,29.03
2022-07-29T00:46:34.754Z,29.37
2022-07-29T00:47:36.588Z,29.25
2022-07-29T00:48:39.781Z,29.20
2022-07-29T00:49:43.168Z,29.17
2022-07-29T00:50:45.016Z,29.35
2022-07-29T00:51:46.905Z,29.44
2022-07-29T00:52:49.689Z,29.18
2022-07-29T00:53:52.023Z,29.03
2022-07-29T00:54:53.846Z,29.52
2022-07-29T00:55:56.515Z,28.90
2022-07-29T00:56:59.769Z,29.11
2022-07-29T00:58:01.629Z,29.04
2022-07-29T00:59:03.518Z,29.43
2022-07-29T01:00:07.486Z,29.44
2022-07-29T01:01:09.283Z,29.42
2022-07-29T01:02:11.237Z,29.24
2022-07-29T01:03:13.777Z,29.36
2022-07-29T01:04:15.903Z,29.23
2022-07-29T01:05:21.707Z,29.42
2022-07-29T01:06:24.650Z,29.01
2022-07-29T01:07:28.544Z,29.16
2022-07-29T01:08:32.392Z,29.25
2022-07-29T01:09:46.048Z,28.88
2022-07-29T01:10:50.335Z,29.18
2022-07-29T01:11:53.018Z,29.16
2022-07-29T01:12:57.712Z,29.05
2022-07-29T01:14:00.505Z,29.49
2022-07-29T01:15:05.317Z,29.39
2022-07-29T01:16:33.048Z,29.38
2022-07-29T01:18:00.718Z,29.26
2022-07-29T01:19:24.637Z,28.91
2022-07-29T01:20:31.588Z,28.98
2022-07-29T01:21:56.485Z,28.88
2022-07-29T01:23:16.094Z,28.88
2022-07-29T01:24:44.941Z,28.85
2022-07-29T01:26:04.920Z,29.34
2022-07-29T01:27:28.922Z,28.80
2022-07-29T01:28:40.531Z,29.15
2022-07-29T01:29:49.983Z,28.80
2022-07-29T01:30:54.681Z,29.49
2022-07-29T01:32:27.329Z,29.42
2022-07-29T01:33:49.518Z,29.33
2022-07-29T01:35:05.735Z,29.20
2022-07-29T01:36:14.512Z,29.46
2022-07-29T01:37:20.669Z,29.35
2022-07-29T01:38:27.667Z,29.28
2022-07-29T01:39:36.148Z,29.21
2022-07-29T01:40:44.262Z,29.06
2022-07-29T01:42:08.664Z,29.17
2022-07-29T01:43:18.335Z,28.99
2022-07-29T01:44:26.294Z,29.60
2022-07-29T01:45:42.640Z,29.64
2022-07-29T01:46:51.820Z,29.67
2022-07-29T01:48:24.024Z,29.13
2022-07-29T01:49:29.865Z,29.15
2022-07-29T01:50:37.223Z,29.54
2022-07-29T01:51:47.519Z,29.58
2022-07-29T01:52:57.065Z,29.47
2022-07-29T01:54:36.428Z,29.23
2022-07-29T01:55:42.944Z,28.94
2022-07-29T01:56:48.745Z,29.30
2022-07-29T01:57:50.931Z,29.43
2022-07-29T01:58:54.381Z,29.38
2022-07-29T01:59:59.572Z,29.35
2022-07-29T02:01:03.862Z,29.91
2022-07-29T02:02:09.745Z,29.78
2022-07-29T02:03:14.858Z,29.86
2022-07-29T02:04:29.135Z,29.64
2022-07-29T02:05:35.433Z,29.76
2022-07-29T02:06:39.275Z,29.56
2022-07-29T02:07:43.135Z,29.75
2022-07-29T02:08:46.996Z,29.42
2022-07-29T02:09:51.497Z,29.77
2022-07-29T02:10:55.554Z,29.94
2022-07-29T02:12:00.308Z,29.90
2022-07-29T02:13:04.017Z,29.76
2022-07-29T02:14:06.841Z,29.58
2022-07-29T02:15:10.905Z,29.50
2022-07-29T02:16:14.432Z,29.48
2022-07-29T02:17:23.498Z,29.50
2022-07-29T02:18:29.105Z,29.64
2022-07-29T02:19:33.377Z,29.70
2022-07-29T02:20:35.602Z,29.59
2022-07-29T02:21:37.860Z,29.55
2022-07-29T02:22:40.858Z,29.89
2022-07-29T02:23:45.156Z,29.33
2022-07-29T02:24:54.629Z,29.55
2022-07-29T02:25:58.958Z,29.38
2022-07-29T02:27:02.860Z,29.53
2022-07-29T02:28:06.659Z,30.02
2022-07-29T02:29:09.857Z,29.84
2022-07-29T02:30:13.743Z,29.31
2022-07-29T02:31:17.749Z,29.78
2022-07-29T02:32:22.509Z,29.92
2022-07-29T02:33:26.482Z,29.57
2022-07-29T02:34:30.423Z,29.61
2022-07-29T02:35:34.931Z,29.56
2022-07-29T02:36:37.606Z,29.74
2022-07-29T02:37:40.856Z,29.58
2022-07-29T02:38:54.659Z,29.68
2022-07-29T02:39:58.574Z,30.10
2022-07-29T02:41:04.167Z,29.90
2022-07-29T02:42:09.141Z,29.56
2022-07-29T02:43:11.955Z,30.11
2022-07-29T02:44:21.728Z,29.71
2022-07-29T02:45:23.668Z,29.97
2022-07-29T02:46:34.109Z,29.95
2022-07-29T02:47:45.976Z,29.47
2022-07-29T02:49:14.274Z,29.80
2022-07-29T02:50:23.656Z,29.46
2022-07-29T02:51:47.835Z,29.45
2022-07-29T02:52:58.449Z,29.46
2022-07-29T02:54:05.154Z,29.21
2022-07-29T02:55:10.180Z,29.69
2022-07-29T02:56:15.668Z,29.46
2022-07-29T02:57:34.010Z,29.91
2022-07-29T02:58:43.858Z,30.04
2022-07-29T02:59:48.902Z,29.70
2022-07-29T03:00:52.812Z,29.69
2022-07-29T03:01:56.878Z,29.55
2022-07-29T03:03:01.200Z,30.15
2022-07-29T03:04:05.755Z,29.59
2022-07-29T03:05:11.045Z,29.54
2022-07-29T03:06:30.911Z,29.78
2022-07-29T03:07:39.222Z,29.60
2022-07-29T03:08:41.669Z,29.72
2022-07-29T03:09:43.978Z,29.73
2022-07-29T03:10:48.188Z,29.50
2022-07-29T03:11:51.044Z,29.87
2022-07-29T03:12:53.813Z,30.02
2022-07-29T03:13:56.498Z,29.78
2022-07-29T03:15:00.243Z,29.73
2022-07-29T03:16:02.558Z,29.66
2022-07-29T03:17:04.548Z,30.06
2022-07-29T03:18:07.558Z,29.64
2022-07-29T03:19:09.471Z,29.67
2022-07-29T03:20:12.785Z,29.90
2022-07-29T03:21:14.616Z,29.73
2022-07-29T03:22:16.700Z,29.78
2022-07-29T03:23:23.843Z,29.68
2022-07-29T03:24:31.343Z,29.74
2022-07-29T03:25:33.122Z,30.25
2022-07-29T03:26:34.995Z,30.19
2022-07-29T03:27:36.843Z,30.29
2022-07-29T03:28:38.915Z,29.52
2022-07-29T03:29:41.502Z,30.28
2022-07-29T03:30:51.888Z,29.76
2022-07-29T03:31:54.167Z,29.93
2022-07-29T03:32:56.551Z,30.19
2022-07-29T03:34:00.586Z,29.97
2022-07-29T03:35:03.193Z,30.05
2022-07-29T03:36:05.037Z,29.75
2022-07-29T03:37:07.974Z,29.71
2022-07-29T03:38:09.803Z,29.77
2022-07-29T03:39:17.130Z,29.84
2022-07-29T03:40:32.089Z,30.09
2022-07-29T03:41:36.684Z,29.81
2022-07-29T03:42:43.566Z,29.92
2022-07-29T03:43:49.736Z,29.78
2022-07-29T03:44:53.792Z,29.72
2022-07-29T03:45:57.709Z,29.99
2022-07-29T03:47:03.096Z,30.22
2022-07-29T03:48:11.319Z,30.29
2022-07-29T03:49:15.969Z,29.66
2022-07-29T03:50:20.395Z,29.82
2022-07-29T03:51:33.402Z,30.22
2022-07-29T03:52:36.858Z,30.21
2022-07-29T03:53:39.003Z,29.66
2022-07-29T03:54:41.184Z,30.08
2022-07-29T03:55:46.236Z,30.05
2022-07-29T03:56:51.318Z,30.03
2022-07-29T03:57:53.431Z,30.14
2022-07-29T03:58:56.609Z,30.29
2022-07-29T03:59:59.788Z,30.07
2022-07-29T04:01:01.887Z,29.80
2022-07-29T04:02:09.476Z,29.92
2022-07-29T04:03:12.150Z,30.26
2022-07-29T04:04:18.069Z,29.99
2022-07-29T04:05:20.318Z,30.06
2022-07-29T04:06:22.357Z,29.97
2022-07-29T04:07:24.173Z,29.79
2022-07-29T04:08:25.997Z,29.68
2022-07-29T04:09:27.757Z,30.30
2022-07-29T04:10:31.691Z,30.13
2022-07-29T04:11:34.476Z,30.43
2022-07-29T04:12:56.260Z,30.12
2022-07-29T04:13:58.018Z,30.00
2022-07-29T04:14:59.789Z,30.31
2022-07-29T04:16:01.573Z,30.16
2022-07-29T04:17:04.768Z,29.88
2022-07-29T04:18:07.045Z,29.82
2022-07-29T04:19:08.834Z,30.17
2022-07-29T04:20:13.750Z,29.85
2022-07-29T04:21:15.650Z,30.40
2022-07-29T04:22:17.492Z,30.11
2022-07-29T04:23:19.322Z,30.32
2022-07-29T04:24:21.259Z,30.34
2022-07-29T04:25:23.172Z,30.20
2022-07-29T04:26:25.146Z,30.17
2022-07-29T04:27:26.940Z,30.74
2022-07-29T04:28:29.174Z,30.10
2022-07-29T04:29:30.931Z,30.51
2022-07-29T04:30:34.638Z,30.40
2022-07-29T04:31:36.551Z,30.11
2022-07-29T04:32:38.407Z,30.21
2022-07-29T04:33:41.091Z,30.53
2022-07-29T04:34:43.041Z,30.24
2022-07-29T04:35:50.488Z,30.48
2022-07-29T04:36:54.385Z,30.14
2022-07-29T04:37:56.143Z,30.43
2022-07-29T04:38:58.396Z,30.12
2022-07-29T04:40:00.219Z,30.44
2022-07-29T04:41:02.079Z,30.56
2022-07-29T04:42:04.048Z,30.73
2022-07-29T04:43:06.161Z,30.85
2022-07-29T04:44:08.811Z,30.53
2022-07-29T04:45:11.195Z,30.42
2022-07-29T04:46:13.155Z,30.61
2022-07-29T04:47:14.998Z,30.37
2022-07-29T04:48:17.466Z,30.50
2022-07-29T04:49:19.245Z,30.69
2022-07-29T04:50:21.476Z,30.41
2022-07-29T04:51:24.380Z,30.10
2022-07-29T04:52:26.180Z,30.52
2022-07-29T04:53:28.293Z,29.95
2022-07-29T04:54:30.047Z,30.39
2022-07-29T04:55:32.079Z,30.54
2022-07-29T04:56:33.942Z,30.21
2022-07-29T04:57:35.877Z,30.40
2022-07-29T04:58:38.531Z,30.14
2022-07-29T04:59:40.288Z,29.95
2022-07-29T05:00:42.497Z,30.11
2022-07-29T05:01:44.322Z,30.12
2022-07-29T05:02:46.262Z,30.58
2022-07-29T05:03:48.030Z,30.37
2022-07-29T05:04:49.873Z,30.29
2022-07-29T05:05:51.717Z,30.41
2022-07-29T05:06:53.561Z,30.41
2022-07-29T05:07:55.347Z,30.36
2022-07-29T05:08:57.339Z,30.40
2022-07-29T05:09:59.232Z,30.53
2022-07-29T05:11:11.814Z,30.18
2022-07-29T05:12:14.530Z,30.49
2022-07-29T05:13:17.182Z,30.27
2022-07-29T05:14:19.483Z,30.20
2022-07-29T05:15:21.734Z,30.20
2022-07-29T05:16:23.661Z,30.18
2022-07-29T05:17:25.591Z,29.90
2022-07-29T05:18:27.435Z,29.91
2022-07-29T05:19:29.348Z,29.79
2022-07-29T05:20:31.874Z,30.18
2022-07-29T05:21:33.631Z,29.84
2022-07-29T05:22:35.470Z,30.07
2022-07-29T05:23:37.261Z,29.69
2022-07-29T05:24:39.279Z,29.50
2022-07-29T05:25:44.266Z,29.64
2022-07-29T05:26:46.722Z,29.29
2022-07-29T05:27:48.732Z,29.55
2022-07-29T05:28:53.019Z,29.47
2022-07-29T05:29:55.029Z,29.68
2022-07-29T05:30:57.633Z,29.75
2022-07-29T05:31:59.519Z,29.59
2022-07-29T05:33:02.129Z,29.44
2022-07-29T05:34:03.917Z,29.40
2022-07-29T05:35:06.275Z,29.20
2022-07-29T05:36:08.643Z,29.15
2022-07-29T05:37:10.615Z,28.75
2022-07-29T05:38:12.410Z,29.06
2022-07-29T05:39:14.306Z,29.08
2022-07-29T05:40:16.188Z,28.69
2022-07-29T05:41:18.136Z,29.23
2022-07-29T05:42:19.903Z,28.69
2022-07-29T05:43:22.058Z,28.96
2022-07-29T05:44:25.356Z,29.16
2022-07-29T05:45:28.487Z,28.79
2022-07-29T05:46:30.624Z,28.95
2022-07-29T05:47:32.633Z,28.69
2022-07-29T05:48:34.836Z,29.02
2022-07-29T05:49:36.644Z,28.44
2022-07-29T05:50:38.465Z,28.40
2022-07-29T05:51:50.456Z,28.58
2022-07-29T05:52:52.813Z,28.57
2022-07-29T05:53:54.688Z,28.71
2022-07-29T05:54:57.380Z,28.48
2022-07-29T05:55:59.196Z,28.67
2022-07-29T05:57:01.143Z,28.52
2022-07-29T05:58:03.031Z,28.12
2022-07-29T05:59:04.824Z,28.46
2022-07-29T06:00:19.809Z,28.63
2022-07-29T06:01:21.861Z,28.60
2022-07-29T06:02:23.843Z,28.59
2022-07-29T06:03:26.518Z,28.63
2022-07-29T06:04:28.384Z,28.47
2022-07-29T06:05:30.450Z,28.46
2022-07-29T06:06:32.304Z,28.26
2022-07-29T06:07:34.071Z,28.41
2022-07-29T06:08:39.790Z,28.14
2022-07-29T06:09:41.675Z,28.44
2022-07-29T06:10:43.664Z,28.48
2022-07-29T06:11:45.502Z,28.65
2022-07-29T06:12:47.274Z,28.67
2022-07-29T06:13:49.267Z,28.34
2022-07-29T06:14:54.228Z,28.27
2022-07-29T06:15:56.488Z,28.44
2022-07-29T06:16:58.285Z,28.26
2022-07-29T06:18:01.743Z,28.57
2022-07-29T06:19:04.300Z,28.22
2022-07-29T06:20:07.537Z,28.37
2022-07-29T06:21:10.898Z,28.43
2022-07-29T06:22:12.713Z,28.07
2022-07-29T06:23:14.508Z,28.59
2022-07-29T06:24:17.143Z,28.65
2022-07-29T06:25:19.495Z,28.62
2022-07-29T06:26:31.316Z,28.50
2022-07-29T06:27:33.748Z,28.44
2022-07-29T06:28:37.451Z,28.29
2022-07-29T06:29:39.445Z,28.67
2022-07-29T06:30:41.403Z,28.58
2022-07-29T06:31:43.289Z,28.20
2022-07-29T06:32:45.077Z,28.59
2022-07-29T06:33:46.832Z,28.61
2022-07-29T06:34:48.878Z,28.45
2022-07-29T06:35:53.395Z,28.63
2022-07-29T06:36:57.128Z,28.51
2022-07-29T06:37:59.711Z,28.40
2022-07-29T06:39:12.214Z,28.71
2022-07-29T06:40:33.047Z,28.42
2022-07-29T06:41:35.214Z,28.66
2022-07-29T06:42:45.101Z,28.70
2022-07-29T06:43:51.730Z,28.51
2022-07-29T06:44:54.613Z,28.22
2022-07-29T06:45:56.712Z,28.89
2022-07-29T06:46:58.548Z,28.45
2022-07-29T06:48:00.635Z,28.70
2022-07-29T06:49:03.376Z,28.70
2022-07-29T06:50:07.797Z,28.62
2022-07-29T06:51:11.458Z,28.39
2022-07-29T06:52:14.533Z,28.53
2022-07-29T06:53:16.348Z,28.70
2022-07-29T06:54:18.284Z,28.48
2022-07-29T06:55:24.722Z,28.39
2022-07-29T06:56:27.544Z,28.66
2022-07-29T06:57:29.466Z,28.33
2022-07-29T06:58:31.769Z,28.40
2022-07-29T06:59:35.848Z,28.38
2022-07-29T07:00:38.644Z,28.61
2022-07-29T07:01:42.426Z,28.37
2022-07-29T07:02:44.544Z,28.76
2022-07-29T07:03:46.471Z,28.53
2022-07-29T07:04:48.246Z,28.55
2022-07-29T07:05:52.894Z,28.57
2022-07-29T07:06:56.821Z,28.39
2022-07-29T07:07:58.784Z,28.59
2022-07-29T07:09:00.702Z,28.17
2022-07-29T07:10:02.800Z,28.41
2022-07-29T07:11:05.260Z,28.61
2022-07-29T07:12:07.310Z,28.53
2022-07-29T07:13:09.745Z,28.20
2022-07-29T07:14:11.647Z,28.58
2022-07-29T07:15:13.781Z,28.41
2022-07-29T07:16:15.785Z,28.47
2022-07-29T07:17:17.731Z,28.39
2022-07-29T07:18:19.871Z,28.29
2022-07-29T07:19:21.671Z,28.22
2022-07-29T07:20:23.660Z,28.51
2022-07-29T07:21:30.312Z,28.29
2022-07-29T07:22:38.409Z,28.52
2022-07-29T07:23:40.763Z,28.73
2022-07-29T07:24:42.567Z,28.61
2022-07-29T07:25:44.632Z,28.35
2022-07-29T07:26:46.643Z,28.60
2022-07-29T07:27:48.709Z,28.13
2022-07-29T07:28:50.476Z,28.31
2022-07-29T07:29:52.540Z,28.26
2022-07-29T07:30:54.557Z,28.36
2022-07-29T07:32:00.758Z,28.12
2022-07-29T07:33:04.359Z,28.18
2022-07-29T07:34:06.512Z,28.14
2022-07-29T07:35:10.407Z,28.10
2022-07-29T07:36:12.203Z,28.12
2022-07-29T07:37:15.632Z,28.29
2022-07-29T07:38:17.822Z,28.18
2022-07-29T07:39:19.613Z,28.17
2022-07-29T07:40:21.469Z,28.06
2022-07-29T07:41:24.235Z,28.19
2022-07-29T07:42:26.029Z,27.91
2022-07-29T07:43:27.922Z,27.95
2022-07-29T07:44:29.676Z,28.27
2022-07-29T07:45:33.665Z,28.08
2022-07-29T07:46:35.521Z,28.19
2022-07-29T07:47:38.519Z,28.14
2022-07-29T07:48:40.366Z,28.08
2022-07-29T07:49:42.160Z,28.15
2022-07-29T07:50:47.060Z,28.14
2022-07-29T07:51:50.372Z,28.25
2022-07-29T07:52:56.109Z,28.14
2022-07-29T07:53:58.120Z,28.07
2022-07-29T07:55:00.955Z,27.98
2022-07-29T07:56:12.455Z,28.07
2022-07-29T07:57:15.867Z,28.07
2022-07-29T07:58:17.716Z,27.97
2022-07-29T07:59:19.488Z,28.11
2022-07-29T08:00:22.952Z,28.09
2022-07-29T08:01:25.886Z,28.09
2022-07-29T08:02:27.938Z,27.92
2022-07-29T08:03:30.017Z,27.91
2022-07-29T08:04:32.497Z,28.10
2022-07-29T08:05:34.360Z,28.21
2022-07-29T08:06:38.073Z,28.10
2022-07-29T08:07:40.318Z,28.02
2022-07-29T08:08:42.770Z,27.81
2022-07-29T08:09:44.787Z,27.93
2022-07-29T08:10:53.196Z,27.71
2022-07-29T08:11:56.003Z,27.72
2022-07-29T08:12:57.946Z,27.51
2022-07-29T08:14:00.324Z,27.96
2022-07-29T08:15:02.191Z,27.78
2022-07-29T08:16:12.826Z,27.52
2022-07-29T08:17:14.796Z,28.16
2022-07-29T08:18:16.626Z,27.82
2022-07-29T08:19:18.469Z,27.21
2022-07-29T08:20:20.587Z,27.70
2022-07-29T08:21:22.393Z,27.72
2022-07-29T08:22:24.229Z,27.63
2022-07-29T08:23:32.919Z,27.85
2022-07-29T08:24:54.836Z,27.44
2022-07-29T08:25:57.580Z,27.39
2022-07-29T08:26:59.651Z,27.64
2022-07-29T08:28:01.456Z,27.74
2022-07-29T08:29:03.479Z,27.71
2022-07-29T08:30:06.269Z,27.68
2022-07-29T08:31:08.336Z,27.57
2022-07-29T08:32:10.198Z,27.43
2022-07-29T08:33:12.210Z,27.73
2022-07-29T08:34:14.496Z,27.17
2022-07-29T08:35:16.325Z,27.31
2022-07-29T08:36:18.346Z,27.59
2022-07-29T08:37:20.167Z,27.37
2022-07-29T08:38:22.082Z,27.47
2022-07-29T08:39:24.827Z,27.64
2022-07-29T08:40:31.884Z,27.14
2022-07-29T08:41:34.643Z,27.42
2022-07-29T08:42:36.990Z,27.21
2022-07-29T08:43:42.013Z,27.49
2022-07-29T08:44:44.391Z,27.24
2022-07-29T08:45:49.559Z,27.20
2022-07-29T08:46:51.772Z,27.36
2022-07-29T08:47:53.677Z,27.29
2022-07-29T08:48:56.510Z,27.04
2022-07-29T08:49:58.547Z,27.29
2022-07-29T08:51:01.721Z,27.42
2022-07-29T08:52:04.404Z,27.17
2022-07-29T08:53:08.678Z,27.26
2022-07-29T08:54:11.155Z,27.14
2022-07-29T08:55:16.467Z,27.04
2022-07-29T08:56:23.894Z,27.01
2022-07-29T08:57:26.715Z,27.14
2022-07-29T08:58:36.890Z,26.98
2022-07-29T08:59:43.343Z,27.07
2022-07-29T09:00:53.546Z,27.28
2022-07-29T09:02:00.796Z,27.24
2022-07-29T09:03:05.825Z,26.96
2022-07-29T09:04:12.114Z,27.19
2022-07-29T09:05:14.107Z,26.89
2022-07-29T09:06:18.826Z,27.10
2022-07-29T09:07:20.603Z,27.02
2022-07-29T09:08:22.559Z,27.02
2022-07-29T09:09:24.462Z,27.05
2022-07-29T09:10:26.753Z,27.03
2022-07-29T09:11:29.653Z,27.06
2022-07-29T09:12:36.143Z,27.47
2022-07-29T09:13:39.794Z,27.21
2022-07-29T09:14:42.131Z,27.25
2022-07-29T09:15:43.979Z,27.04
2022-07-29T09:16:57.383Z,27.23
2022-07-29T09:18:00.958Z,27.16
2022-07-29T09:19:02.778Z,26.86
2022-07-29T09:20:25.195Z,27.05
2022-07-29T09:22:00.247Z,27.01
2022-07-29T09:23:09.428Z,26.73
2022-07-29T09:24:14.839Z,27.19
2022-07-29T09:25:37.058Z,26.88
2022-07-29T09:26:41.913Z,27.00
2022-07-29T09:27:51.884Z,26.73
2022-07-29T09:28:53.699Z,27.08
2022-07-29T09:30:00.155Z,27.32
2022-07-29T09:31:03.484Z,26.90
2022-07-29T09:32:10.627Z,27.03
2022-07-29T09:33:12.800Z,27.07
2022-07-29T09:34:17.220Z,27.12
2022-07-29T09:35:21.630Z,26.98
2022-07-29T09:36:23.439Z,26.83
2022-07-29T09:37:29.810Z,27.22
2022-07-29T09:38:32.270Z,27.35
2022-07-29T09:39:45.205Z,27.42
2022-07-29T09:41:04.613Z,26.97
2022-07-29T09:42:08.007Z,27.19
2022-07-29T09:43:14.363Z,27.11
2022-07-29T09:44:16.979Z,26.93
2022-07-29T09:45:30.193Z,26.98
2022-07-29T09:46:32.044Z,27.00
2022-07-29T09:47:49.892Z,27.06
2022-07-29T09:49:13.862Z,26.82
2022-07-29T09:50:16.829Z,26.76
2022-07-29T09:51:23.061Z,26.93
2022-07-29T09:52:30.304Z,27.21
2022-07-29T09:53:38.508Z,27.24
2022-07-29T09:54:40.450Z,27.04
2022-07-29T09:55:49.471Z,27.09
2022-07-29T09:56:51.645Z,26.90
2022-07-29T09:57:54.712Z,26.95
2022-07-29T09:59:10.241Z,27.12
2022-07-29T10:00:13.883Z,27.11
2022-07-29T10:01:17.008Z,27.27
2022-07-29T10:02:23.845Z,27.15
2022-07-29T10:03:26.077Z,27.02
2022-07-29T10:04:46.777Z,26.82
2022-07-29T10:06:06.303Z,26.78
2022-07-29T10:07:10.415Z,26.93
2022-07-29T10:08:15.886Z,26.78
2022-07-29T10:09:17.908Z,26.88
2022-07-29T10:10:32.737Z,26.93
2022-07-29T10:11:48.448Z,27.06
2022-07-29T10:13:04.399Z,26.68
2022-07-29T10:14:09.125Z,26.94
2022-07-29T10:15:10.964Z,26.48
2022-07-29T10:16:14.388Z,26.82
2022-07-29T10:17:17.724Z,26.81
2022-07-29T10:18:21.046Z,27.09
2022-07-29T10:19:23.320Z,27.24
2022-07-29T10:20:26.445Z,27.03
2022-07-29T10:21:35.962Z,27.00
2022-07-29T10:22:54.420Z,27.30
2022-07-29T10:24:01.154Z,27.12
2022-07-29T10:25:03.531Z,26.89
2022-07-29T10:26:06.014Z,26.99
2022-07-29T10:27:09.401Z,27.03
2022-07-29T10:28:15.784Z,27.02
2022-07-29T10:29:18.313Z,27.38
2022-07-29T10:30:22.024Z,27.41
2022-07-29T10:31:31.031Z,27.02
2022-07-29T10:32:41.952Z,27.43
2022-07-29T10:33:49.446Z,27.31
2022-07-29T10:35:20.880Z,27.33
2022-07-29T10:36:47.990Z,27.23
2022-07-29T10:37:58.706Z,27.08
2022-07-29T10:39:16.613Z,27.05
2022-07-29T10:41:13.239Z,26.92
2022-07-29T10:42:29.614Z,26.95
2022-07-29T10:43:42.573Z,26.62
2022-07-29T10:44:44.961Z,26.72
2022-07-29T10:45:50.246Z,27.07
2022-07-29T10:46:54.563Z,27.07
2022-07-29T10:48:08.060Z,27.27
2022-07-29T10:49:15.937Z,26.89
2022-07-29T10:50:17.936Z,26.88
2022-07-29T10:51:20.131Z,26.81
2022-07-29T10:52:26.648Z,26.94
2022-07-29T10:53:53.381Z,27.03
2022-07-29T10:54:56.382Z,26.96
2022-07-29T10:55:58.384Z,27.01
2022-07-29T10:57:26.002Z,27.20
2022-07-29T10:58:44.010Z,27.12
2022-07-29T11:00:05.750Z,27.17
2022-07-29T11:01:37.222Z,26.96
2022-07-29T11:02:41.057Z,26.54
2022-07-29T11:03:49.274Z,27.06
2022-07-29T11:04:51.580Z,27.08
2022-07-29T11:05:59.743Z,27.05
2022-07-29T11:07:03.930Z,27.15
2022-07-29T11:08:20.377Z,27.12
2022-07-29T11:09:34.889Z,27.14
2022-07-29T11:10:40.669Z,26.79
2022-07-29T11:11:44.176Z,27.38
2022-07-29T11:12:53.611Z,27.34
2022-07-29T11:13:58.008Z,27.36
2022-07-29T11:15:02.693Z,26.99
2022-07-29T11:16:06.914Z,27.20
2022-07-29T11:17:10.324Z,27.16
2022-07-29T11:18:17.449Z,27.14
2022-07-29T11:19:26.264Z,27.11
2022-07-29T11:20:49.919Z,26.80
2022-07-29T11:21:55.177Z,27.06
2022-07-29T11:23:18.181Z,26.88
2022-07-29T11:24:30.001Z,27.06
2022-07-29T11:25:50.172Z,27.06
2022-07-29T11:27:11.657Z,26.99
2022-07-29T11:28:22.688Z,26.79
2022-07-29T11:29:27.402Z,26.88
2022-07-29T11:30:49.246Z,27.15
2022-07-29T11:31:55.918Z,26.86
2022-07-29T11:32:58.567Z,27.13
2022-07-29T11:34:20.924Z,26.68
2022-07-29T11:35:37.200Z,26.94
2022-07-29T11:37:15.152Z,26.86
2022-07-29T11:38:31.811Z,26.83
2022-07-29T11:39:37.821Z,27.02
2022-07-29T11:40:40.243Z,26.91
2022-07-29T11:41:44.443Z,26.68
2022-07-29T11:42:47.567Z,26.88
2022-07-29T11:44:00.793Z,27.38
2022-07-29T11:45:43.984Z,27.04
2022-07-29T11:46:51.527Z,27.01
2022-07-29T11:48:26.958Z,26.84
2022-07-29T11:49:31.955Z,27.19
2022-07-29T11:50:37.801Z,26.90
2022-07-29T11:51:54.951Z,27.31
2022-07-29T11:52:58.977Z,27.04
2022-07-29T11:54:05.097Z,27.21
2022-07-29T11:55:09.642Z,27.43
2022-07-29T11:56:16.435Z,26.88
2022-07-29T11:57:20.753Z,27.39
2022-07-29T11:58:25.062Z,27.29
2022-07-29T11:59:32.997Z,26.83
2022-07-29T12:00:53.071Z,26.98
2022-07-29T12:02:18.428Z,26.96
2022-07-29T12:03:32.797Z,26.72
2022-07-29T12:04:49.976Z,26.71
2022-07-29T12:05:52.072Z,26.75
2022-07-29T12:06:55.488Z,27.11
2022-07-29T12:08:05.905Z,27.04
2022-07-29T12:09:14.473Z,27.17
2022-07-29T12:10:19.860Z,27.22
2022-07-29T12:11:31.728Z,27.05
2022-07-29T12:12:35.737Z,27.07
2022-07-29T12:13:41.494Z,26.94
2022-07-29T12:14:46.634Z,27.28
2022-07-29T12:15:55.836Z,27.14
2022-07-29T12:17:01.977Z,27.35
2022-07-29T12:18:24.071Z,27.34
2022-07-29T12:19:27.714Z,27.23
2022-07-29T12:20:31.282Z,26.88
2022-07-29T12:21:52.383Z,27.00
2022-07-29T12:22:58.181Z,27.22
2022-07-29T12:24:08.945Z,27.41
2022-07-29T12:25:32.581Z,26.77
2022-07-29T12:26:35.746Z,26.73
2022-07-29T12:27:40.927Z,26.99
2022-07-29T12:28:42.906Z,26.94
2022-07-29T12:30:03.654Z,26.99
2022-07-29T12:31:05.948Z,26.90
2022-07-29T12:32:14.921Z,26.84
2022-07-29T12:33:30.571Z,26.85
2022-07-29T12:34:33.407Z,26.84
2022-07-29T12:35:35.263Z,26.96
2022-07-29T12:36:37.378Z,27.01
2022-07-29T12:37:42.682Z,27.48
2022-07-29T12:38:45.601Z,27.01
2022-07-29T12:39:47.519Z,27.15
2022-07-29T12:40:51.759Z,27.33
2022-07-29T12:42:04.320Z,26.93
2022-07-29T12:43:15.328Z,27.33
2022-07-29T12:44:17.175Z,26.95
2022-07-29T12:45:30.039Z,27.05
2022-07-29T12:46:32.698Z,27.36
2022-07-29T12:47:34.942Z,27.22
2022-07-29T12:48:41.225Z,27.52
2022-07-29T12:49:43.343Z,27.27
2022-07-29T12:51:15.590Z,27.27
2022-07-29T12:52:32.847Z,27.02
2022-07-29T12:53:34.954Z,27.07
2022-07-29T12:54:48.296Z,26.85
2022-07-29T12:55:54.836Z,26.94
2022-07-29T12:57:00.791Z,27.01
2022-07-29T12:58:02.674Z,27.38
2022-07-29T12:59:19.234Z,27.22
2022-07-29T13:00:25.402Z,26.87
2022-07-29T13:01:28.388Z,26.86
2022-07-29T13:02:30.604Z,27.09
2022-07-29T13:03:56.773Z,27.21
2022-07-29T13:05:00.873Z,27.21
2022-07-29T13:06:03.094Z,27.05
2022-07-29T13:07:10.387Z,27.19
2022-07-29T13:08:22.120Z,27.02
2022-07-29T13:09:24.658Z,26.66
2022-07-29T13:10:26.459Z,26.93
2022-07-29T13:11:30.102Z,27.01
2022-07-29T13:12:33.870Z,27.12
2022-07-29T13:13:50.788Z,26.87
2022-07-29T13:15:16.113Z,26.63
2022-07-29T13:16:17.980Z,26.85
2022-07-29T13:17:23.706Z,26.94
2022-07-29T13:18:28.608Z,26.93
2022-07-29T13:19:35.843Z,26.86
2022-07-29T13:20:37.698Z,26.84
2022-07-29T13:21:40.571Z,27.07
2022-07-29T13:22:43.702Z,26.86
2022-07-29T13:23:45.799Z,26.82
2022-07-29T13:24:55.667Z,27.11
2022-07-29T13:26:07.034Z,26.75
2022-07-29T13:27:09.028Z,27.13
2022-07-29T13:28:12.602Z,26.75
2022-07-29T13:29:14.921Z,26.69
2022-07-29T13:30:16.927Z,26.71
2022-07-29T13:31:18.749Z,26.89
2022-07-29T13:32:28.291Z,26.92
2022-07-29T13:33:31.285Z,27.14
2022-07-29T13:34:33.082Z,26.73
2022-07-29T13:35:35.011Z,27.16
2022-07-29T13:36:41.967Z,26.82
2022-07-29T13:37:44.157Z,27.14
2022-07-29T13:38:46.000Z,27.27
2022-07-29T13:39:52.693Z,26.80
2022-07-29T13:40:55.184Z,26.87
2022-07-29T13:41:57.498Z,27.22
2022-07-29T13:42:59.509Z,26.95
2022-07-29T13:44:01.470Z,27.27
2022-07-29T13:45:04.451Z,27.26
2022-07-29T13:46:06.356Z,27.10
2022-07-29T13:47:08.857Z,27.08
2022-07-29T13:48:10.746Z,27.10
2022-07-29T13:49:12.620Z,26.90
2022-07-29T13:50:14.953Z,27.10
2022-07-29T13:51:16.768Z,27.21
2022-07-29T13:52:18.652Z,27.36
2022-07-29T13:53:20.664Z,27.00
2022-07-29T13:54:29.111Z,27.19
2022-07-29T13:55:31.012Z,27.18
2022-07-29T13:56:33.072Z,27.20
2022-07-29T13:57:34.970Z,27.11
2022-07-29T13:58:37.270Z,26.99
2022-07-29T13:59:40.536Z,27.28
2022-07-29T14:00:42.921Z,27.01
2022-07-29T14:01:45.521Z,27.28
2022-07-29T14:02:48.654Z,27.10
2022-07-29T14:03:50.647Z,27.36
2022-07-29T14:04:52.519Z,27.48
2022-07-29T14:05:54.428Z,27.19
2022-07-29T14:06:56.299Z,27.18